Escambia High School FL US WEATHERSTEM current weather conditions

sailwx.info

Wind from 340 at 12 knots gusting 18

Air temperature 10.0° C
Dewpoint -5.9° C

Last reported at 2020-Jan-20 20:30 UTC.
Time now 2020-Jan-20 23:00 UTC

Location: N 30°26' W 087°18'.
View on Google Maps.

See reports from other nearby stations

  
Tides and Currents Weather Stations Pressure Air Temp Water Temp Dewpoint Dewpoint Depression Visibility Wind Speed Wind Dir Waves Ship Positions
date/time (UTC)wind fromknots sea level pressurealtimeterstation pressurevisibilityair tempwater tempwave heightnotes
2020-Jan-20 20:30 340 12 gusting 18 10.0
2020-Jan-20 20:20 340 12 gusting 18 10.0
2020-Jan-20 20:10 340 12 gusting 18 10.0
2020-Jan-20 20:00 340 12 gusting 18 10.0
2020-Jan-20 19:50 350 12 gusting 18 9.4
2020-Jan-20 19:40 350 12 gusting 18 9.4
2020-Jan-20 19:30 350 12 gusting 19 9.4
2020-Jan-20 19:10 350 12 gusting 18 8.9
2020-Jan-20 18:50 8.9
2020-Jan-20 18:40 8.3
2020-Jan-20 16:00 350 12 gusting 18 5.0
2020-Jan-20 15:50 350 10 gusting 18 4.4
2020-Jan-20 15:40 350 11 gusting 19 3.9
2020-Jan-20 15:30 350 11 gusting 18 3.9
2020-Jan-20 12:20 350 8 gusting 14 1.7
2020-Jan-20 12:10 350 8 gusting 14 1.7
2020-Jan-20 12:00 350 8 gusting 14 1.7
2020-Jan-20 11:50 350 8 gusting 8 1.7
2020-Jan-20 11:40 350 8 gusting 8 2.2
2020-Jan-20 11:30 350 8 gusting 8 2.2
2020-Jan-20 11:20 350 8 gusting 8 2.2
2020-Jan-20 11:10 350 8 gusting 8 2.2
2020-Jan-20 05:50 340 8 gusting 8 4.4
2020-Jan-20 05:40 340 8 gusting 8 4.4
2020-Jan-20 05:30 340 8 gusting 8 5.0
2020-Jan-20 05:20 340 8 gusting 8 5.0
2020-Jan-20 05:10 340 8 gusting 14 5.0
2020-Jan-20 04:30 340 7 gusting 7 5.6
2020-Jan-20 03:20 350 7 gusting 7 6.7
2020-Jan-20 03:10 350 8 gusting 8 7.2
2020-Jan-20 02:50 350 8 gusting 8 7.8
2020-Jan-20 02:40 350 8 gusting 8 7.8
2020-Jan-20 02:30 350 9 gusting 13 7.8
2020-Jan-20 02:20 350 8 gusting 14 7.8
2020-Jan-19 22:30 330 9 gusting 17 11.7
2020-Jan-19 22:20 330 9 gusting 18 11.7
2020-Jan-19 22:10 340 10 gusting 18 12.2
2020-Jan-19 22:00 340 11 gusting 19 12.2
2020-Jan-19 21:50 350 13 gusting 20 12.2
2020-Jan-19 21:40 350 13 gusting 19 12.2
2020-Jan-19 21:30 350 13 gusting 19 12.8
2020-Jan-19 21:20 350 13 gusting 22 12.8
2020-Jan-19 21:10 350 13 gusting 20 12.8
2020-Jan-19 21:00 340 12 gusting 19 12.2
2020-Jan-19 20:40 340 11 gusting 20 11.7
2020-Jan-19 17:00 350 13 gusting 22 9.4
2020-Jan-19 15:50 350 13 gusting 22 9.4
2020-Jan-19 15:40 350 13 gusting 22 10.0
2020-Jan-19 15:30 350 13 gusting 22 10.0
2020-Jan-19 12:40 350 12 gusting 21 12.2
2020-Jan-19 12:30 340 12 gusting 21 12.8
2020-Jan-19 12:20 340 12 gusting 20 12.8
2020-Jan-19 12:10 340 12 gusting 19 13.3
2020-Jan-19 12:00 340 12 gusting 19 13.3
2020-Jan-19 11:50 340 11 gusting 16 13.9
2020-Jan-19 08:00 300 5 gusting 5 18.3
2020-Jan-19 07:50 290 5 gusting 5 18.9
2020-Jan-19 07:40 290 5 gusting 5 18.9
2020-Jan-19 07:30 270 5 gusting 5 18.9
2020-Jan-19 07:20 270 5 gusting 5 18.9
2020-Jan-19 07:00 270 5 gusting 5 19.4
2020-Jan-19 06:50 260 5 gusting 5 18.9
2020-Jan-19 06:40 260 4 gusting 4 18.9
2020-Jan-19 03:20 190 2 gusting 2 18.3
2020-Jan-19 03:10 190 2 gusting 2 18.3
2020-Jan-19 03:00 170 2 gusting 2 18.3
2020-Jan-19 02:50 170 2 gusting 2 18.3
2020-Jan-19 02:40 170 2 gusting 2 18.3
2020-Jan-19 02:20 200 1 gusting 1 18.3